Terminal Aerodrome Forecast
Issued by NWS

Home | Current Version | Previous Version | Text Only | Print | Product List | Glossary On
Versions: 1 2 3 4 5 6 7 8 9 10 11 12 13 14 15 16
071
FTUS45 KPSR 222120 AAA
TAFBLH
TAF AMD
KBLH 222120Z 2221/2318 16006KT P6SM OVC090
     FM230300 18015KT P6SM SCT050 OVC070
     FM231000 23018G28KT P6SM VCSH BKN050 OVC080=

USA.gov is the U.S. government's official web portal to all federal, state and local government web resources and services.